sensor_id;sensor_type;location;lat;lon;timestamp;P1;durP1;ratioP1;P2;durP2;ratioP2
65764;SDS011;52915;53.718;19.946;2022-12-07T00:04:48;98.40;;;40.30;;
65764;SDS011;52915;53.718;19.946;2022-12-07T00:09:52;107.50;;;40.70;;
65764;SDS011;52915;53.718;19.946;2022-12-07T00:14:56;94.40;;;36.30;;
65764;SDS011;52915;53.718;19.946;2022-12-07T00:20:00;88.40;;;38.80;;
65764;SDS011;52915;53.718;19.946;2022-12-07T00:25:04;91.00;;;35.60;;
65764;SDS011;52915;53.718;19.946;2022-12-07T00:30:09;94.70;;;40.00;;
65764;SDS011;52915;53.718;19.946;2022-12-07T00:35:13;91.00;;;37.70;;
65764;SDS011;52915;53.718;19.946;2022-12-07T00:40:17;92.80;;;38.80;;
65764;SDS011;52915;53.718;19.946;2022-12-07T00:45:21;84.30;;;34.70;;
65764;SDS011;52915;53.718;19.946;2022-12-07T00:50:24;96.70;;;38.40;;
65764;SDS011;52915;53.718;19.946;2022-12-07T00:55:33;88.80;;;38.10;;
65764;SDS011;52915;53.718;19.946;2022-12-07T01:00:38;91.20;;;36.20;;
65764;SDS011;52915;53.718;19.946;2022-12-07T01:05:51;83.50;;;35.30;;
65764;SDS011;52915;53.718;19.946;2022-12-07T01:11:00;88.00;;;35.00;;
65764;SDS011;52915;53.718;19.946;2022-12-07T01:16:07;70.00;;;28.60;;
65764;SDS011;52915;53.718;19.946;2022-12-07T01:21:20;56.50;;;23.00;;
65764;SDS011;52915;53.718;19.946;2022-12-07T01:26:28;67.10;;;24.10;;
65764;SDS011;52915;53.718;19.946;2022-12-07T01:31:33;61.70;;;25.40;;
65764;SDS011;52915;53.718;19.946;2022-12-07T01:36:37;76.60;;;30.20;;
65764;SDS011;52915;53.718;19.946;2022-12-07T01:41:41;61.90;;;24.80;;
65764;SDS011;52915;53.718;19.946;2022-12-07T01:47:01;50.40;;;20.60;;
65764;SDS011;52915;53.718;19.946;2022-12-07T01:52:42;57.40;;;21.60;;
65764;SDS011;52915;53.718;19.946;2022-12-07T01:57:48;74.40;;;26.10;;
65764;SDS011;52915;53.718;19.946;2022-12-07T02:03:00;58.80;;;23.50;;
65764;SDS011;52915;53.718;19.946;2022-12-07T02:08:13;55.90;;;20.40;;
65764;SDS011;52915;53.718;19.946;2022-12-07T02:13:27;50.90;;;20.50;;
65764;SDS011;52915;53.718;19.946;2022-12-07T02:29:40;40.30;;;15.90;;
65764;SDS011;52915;53.718;19.946;2022-12-07T02:34:55;75.20;;;25.60;;
65764;SDS011;52915;53.718;19.946;2022-12-07T02:40:25;35.90;;;14.00;;
65764;SDS011;52915;53.718;19.946;2022-12-07T02:45:54;38.40;;;14.80;;
65764;SDS011;52915;53.718;19.946;2022-12-07T02:51:01;60.20;;;22.00;;
65764;SDS011;52915;53.718;19.946;2022-12-07T02:56:27;44.30;;;18.10;;
65764;SDS011;52915;53.718;19.946;2022-12-07T03:17:50;68.60;;;23.60;;
65764;SDS011;52915;53.718;19.946;2022-12-07T03:22:56;41.10;;;19.20;;
65764;SDS011;52915;53.718;19.946;2022-12-07T03:28:05;40.80;;;18.50;;
65764;SDS011;52915;53.718;19.946;2022-12-07T03:33:14;50.90;;;20.90;;
65764;SDS011;52915;53.718;19.946;2022-12-07T03:38:48;31.90;;;13.60;;
65764;SDS011;52915;53.718;19.946;2022-12-07T03:44:02;43.20;;;18.80;;
65764;SDS011;52915;53.718;19.946;2022-12-07T03:54:19;40.60;;;15.90;;
65764;SDS011;52915;53.718;19.946;2022-12-07T03:59:47;60.70;;;22.70;;
65764;SDS011;52915;53.718;19.946;2022-12-07T04:04:52;53.20;;;24.00;;
65764;SDS011;52915;53.718;19.946;2022-12-07T04:09:56;31.50;;;14.90;;
65764;SDS011;52915;53.718;19.946;2022-12-07T04:15:00;33.70;;;16.40;;
65764;SDS011;52915;53.718;19.946;2022-12-07T04:20:05;57.40;;;28.40;;
65764;SDS011;52915;53.718;19.946;2022-12-07T04:25:10;58.10;;;31.50;;
65764;SDS011;52915;53.718;19.946;2022-12-07T04:30:13;48.90;;;22.60;;
65764;SDS011;52915;53.718;19.946;2022-12-07T04:35:18;58.80;;;33.00;;
65764;SDS011;52915;53.718;19.946;2022-12-07T04:40:21;36.10;;;20.60;;
65764;SDS011;52915;53.718;19.946;2022-12-07T04:45:25;19.40;;;12.00;;
65764;SDS011;52915;53.718;19.946;2022-12-07T04:50:29;51.90;;;30.00;;
65764;SDS011;52915;53.718;19.946;2022-12-07T04:55:33;18.40;;;9.10;;
65764;SDS011;52915;53.718;19.946;2022-12-07T05:00:37;27.10;;;16.10;;
65764;SDS011;52915;53.718;19.946;2022-12-07T05:05:41;42.40;;;19.00;;
65764;SDS011;52915;53.718;19.946;2022-12-07T05:10:45;48.00;;;20.10;;
65764;SDS011;52915;53.718;19.946;2022-12-07T05:15:48;53.50;;;23.20;;
65764;SDS011;52915;53.718;19.946;2022-12-07T05:20:53;37.80;;;19.50;;
65764;SDS011;52915;53.718;19.946;2022-12-07T05:25:56;30.00;;;14.80;;
65764;SDS011;52915;53.718;19.946;2022-12-07T05:31:00;19.10;;;11.20;;
65764;SDS011;52915;53.718;19.946;2022-12-07T05:36:05;16.80;;;9.40;;
65764;SDS011;52915;53.718;19.946;2022-12-07T05:41:13;18.50;;;10.30;;
65764;SDS011;52915;53.718;19.946;2022-12-07T05:46:37;13.30;;;8.50;;
65764;SDS011;52915;53.718;19.946;2022-12-07T05:51:41;9.50;;;3.80;;
65764;SDS011;52915;53.718;19.946;2022-12-07T05:56:45;17.10;;;11.30;;
65764;SDS011;52915;53.718;19.946;2022-12-07T06:02:07;25.40;;;11.70;;
65764;SDS011;52915;53.718;19.946;2022-12-07T06:07:15;12.20;;;6.50;;
65764;SDS011;52915;53.718;19.946;2022-12-07T06:12:20;14.40;;;6.80;;
65764;SDS011;52915;53.718;19.946;2022-12-07T06:17:41;16.90;;;7.80;;
65764;SDS011;52915;53.718;19.946;2022-12-07T06:22:45;19.60;;;8.70;;
65764;SDS011;52915;53.718;19.946;2022-12-07T06:27:48;16.50;;;8.70;;
65764;SDS011;52915;53.718;19.946;2022-12-07T06:32:52;25.60;;;11.60;;
65764;SDS011;52915;53.718;19.946;2022-12-07T06:37:56;21.80;;;10.30;;
65764;SDS011;52915;53.718;19.946;2022-12-07T06:43:00;19.60;;;9.40;;
65764;SDS011;52915;53.718;19.946;2022-12-07T06:48:04;29.00;;;12.00;;
65764;SDS011;52915;53.718;19.946;2022-12-07T06:53:09;21.70;;;10.10;;
65764;SDS011;52915;53.718;19.946;2022-12-07T06:58:12;9.60;;;7.00;;
65764;SDS011;52915;53.718;19.946;2022-12-07T07:03:16;20.40;;;10.20;;
65764;SDS011;52915;53.718;19.946;2022-12-07T07:08:20;23.40;;;9.70;;
65764;SDS011;52915;53.718;19.946;2022-12-07T07:13:26;16.20;;;8.20;;
65764;SDS011;52915;53.718;19.946;2022-12-07T07:18:30;23.00;;;9.30;;
65764;SDS011;52915;53.718;19.946;2022-12-07T07:23:34;20.10;;;10.40;;
65764;SDS011;52915;53.718;19.946;2022-12-07T07:28:38;37.00;;;16.70;;
65764;SDS011;52915;53.718;19.946;2022-12-07T07:33:42;33.20;;;11.80;;
65764;SDS011;52915;53.718;19.946;2022-12-07T07:38:47;29.00;;;14.00;;
65764;SDS011;52915;53.718;19.946;2022-12-07T07:43:50;22.10;;;12.10;;
65764;SDS011;52915;53.718;19.946;2022-12-07T07:48:54;21.70;;;11.30;;
65764;SDS011;52915;53.718;19.946;2022-12-07T07:53:58;32.80;;;16.30;;
65764;SDS011;52915;53.718;19.946;2022-12-07T07:59:02;23.10;;;9.90;;
65764;SDS011;52915;53.718;19.946;2022-12-07T08:04:05;25.40;;;12.30;;
65764;SDS011;52915;53.718;19.946;2022-12-07T08:09:09;24.70;;;13.20;;
65764;SDS011;52915;53.718;19.946;2022-12-07T08:14:14;15.90;;;9.20;;
65764;SDS011;52915;53.718;19.946;2022-12-07T08:19:18;21.60;;;11.40;;
65764;SDS011;52915;53.718;19.946;2022-12-07T08:24:23;26.20;;;12.40;;
65764;SDS011;52915;53.718;19.946;2022-12-07T08:29:28;23.30;;;9.30;;
65764;SDS011;52915;53.718;19.946;2022-12-07T08:34:32;33.10;;;13.40;;
65764;SDS011;52915;53.718;19.946;2022-12-07T08:39:36;28.10;;;12.30;;
65764;SDS011;52915;53.718;19.946;2022-12-07T08:44:40;19.60;;;11.50;;
65764;SDS011;52915;53.718;19.946;2022-12-07T08:49:47;25.60;;;11.40;;
65764;SDS011;52915;53.718;19.946;2022-12-07T08:54:53;13.90;;;8.90;;
65764;SDS011;52915;53.718;19.946;2022-12-07T08:59:57;13.20;;;6.80;;
65764;SDS011;52915;53.718;19.946;2022-12-07T09:05:01;11.20;;;7.70;;
65764;SDS011;52915;53.718;19.946;2022-12-07T09:10:06;63.20;;;28.80;;
65764;SDS011;52915;53.718;19.946;2022-12-07T09:15:10;47.30;;;22.70;;
65764;SDS011;52915;53.718;19.946;2022-12-07T09:20:14;23.60;;;13.60;;
65764;SDS011;52915;53.718;19.946;2022-12-07T09:25:18;21.40;;;12.60;;
65764;SDS011;52915;53.718;19.946;2022-12-07T09:30:22;25.20;;;10.70;;
65764;SDS011;52915;53.718;19.946;2022-12-07T09:35:26;10.80;;;7.70;;
65764;SDS011;52915;53.718;19.946;2022-12-07T09:40:30;19.10;;;11.10;;
65764;SDS011;52915;53.718;19.946;2022-12-07T09:45:37;25.90;;;14.30;;
65764;SDS011;52915;53.718;19.946;2022-12-07T09:50:48;20.20;;;11.60;;
65764;SDS011;52915;53.718;19.946;2022-12-07T09:55:54;20.30;;;11.00;;
65764;SDS011;52915;53.718;19.946;2022-12-07T10:01:13;93.50;;;50.40;;
65764;SDS011;52915;53.718;19.946;2022-12-07T10:06:19;46.70;;;28.00;;
65764;SDS011;52915;53.718;19.946;2022-12-07T10:11:23;17.90;;;12.40;;
65764;SDS011;52915;53.718;19.946;2022-12-07T10:16:32;21.30;;;13.80;;
65764;SDS011;52915;53.718;19.946;2022-12-07T10:22:03;30.00;;;15.80;;
65764;SDS011;52915;53.718;19.946;2022-12-07T10:27:34;34.10;;;17.40;;
65764;SDS011;52915;53.718;19.946;2022-12-07T10:32:38;23.80;;;15.10;;
65764;SDS011;52915;53.718;19.946;2022-12-07T10:37:42;18.40;;;9.90;;
65764;SDS011;52915;53.718;19.946;2022-12-07T10:43:00;16.20;;;11.70;;
65764;SDS011;52915;53.718;19.946;2022-12-07T10:54:09;17.70;;;10.80;;
65764;SDS011;52915;53.718;19.946;2022-12-07T10:59:57;12.50;;;6.70;;
65764;SDS011;52915;53.718;19.946;2022-12-07T11:11:14;14.50;;;8.90;;
65764;SDS011;52915;53.718;19.946;2022-12-07T11:16:59;8.80;;;6.70;;
65764;SDS011;52915;53.718;19.946;2022-12-07T11:22:22;12.00;;;8.10;;
65764;SDS011;52915;53.718;19.946;2022-12-07T11:27:41;23.60;;;11.90;;
65764;SDS011;52915;53.718;19.946;2022-12-07T11:38:31;10.60;;;7.20;;
65764;SDS011;52915;53.718;19.946;2022-12-07T11:43:53;16.70;;;8.40;;
65764;SDS011;52915;53.718;19.946;2022-12-07T11:49:15;31.90;;;14.40;;
65764;SDS011;52915;53.718;19.946;2022-12-07T11:54:51;116.10;;;37.30;;
65764;SDS011;52915;53.718;19.946;2022-12-07T12:00:04;160.30;;;49.00;;
65764;SDS011;52915;53.718;19.946;2022-12-07T12:05:18;286.00;;;74.80;;
65764;SDS011;52915;53.718;19.946;2022-12-07T12:10:42;391.90;;;100.50;;
65764;SDS011;52915;53.718;19.946;2022-12-07T12:22:20;154.00;;;42.10;;
65764;SDS011;52915;53.718;19.946;2022-12-07T12:27:31;230.20;;;62.00;;
65764;SDS011;52915;53.718;19.946;2022-12-07T12:37:47;104.00;;;32.30;;
65764;SDS011;52915;53.718;19.946;2022-12-07T12:42:55;86.10;;;25.40;;
65764;SDS011;52915;53.718;19.946;2022-12-07T12:48:01;78.30;;;20.90;;
65764;SDS011;52915;53.718;19.946;2022-12-07T12:53:25;102.40;;;32.80;;
65764;SDS011;52915;53.718;19.946;2022-12-07T12:58:36;144.80;;;45.00;;
65764;SDS011;52915;53.718;19.946;2022-12-07T13:03:52;85.20;;;36.50;;
65764;SDS011;52915;53.718;19.946;2022-12-07T13:08:59;77.10;;;27.80;;
65764;SDS011;52915;53.718;19.946;2022-12-07T13:24:49;65.50;;;20.60;;
65764;SDS011;52915;53.718;19.946;2022-12-07T13:29:56;83.30;;;25.10;;
65764;SDS011;52915;53.718;19.946;2022-12-07T13:40:37;43.30;;;20.10;;
65764;SDS011;52915;53.718;19.946;2022-12-07T13:45:41;58.50;;;22.90;;
65764;SDS011;52915;53.718;19.946;2022-12-07T13:50:57;43.10;;;19.20;;
65764;SDS011;52915;53.718;19.946;2022-12-07T13:56:14;37.30;;;18.20;;
65764;SDS011;52915;53.718;19.946;2022-12-07T14:01:19;71.90;;;28.20;;
65764;SDS011;52915;53.718;19.946;2022-12-07T14:06:26;51.30;;;21.90;;
65764;SDS011;52915;53.718;19.946;2022-12-07T14:11:31;54.60;;;26.20;;
65764;SDS011;52915;53.718;19.946;2022-12-07T14:16:36;55.20;;;24.80;;
65764;SDS011;52915;53.718;19.946;2022-12-07T14:21:42;92.00;;;27.90;;
65764;SDS011;52915;53.718;19.946;2022-12-07T14:26:48;74.50;;;24.50;;
65764;SDS011;52915;53.718;19.946;2022-12-07T14:31:53;79.60;;;26.70;;
65764;SDS011;52915;53.718;19.946;2022-12-07T14:42:46;122.80;;;29.00;;
65764;SDS011;52915;53.718;19.946;2022-12-07T14:47:54;75.70;;;24.90;;
65764;SDS011;52915;53.718;19.946;2022-12-07T14:53:22;77.50;;;25.70;;
65764;SDS011;52915;53.718;19.946;2022-12-07T14:58:40;119.20;;;29.00;;
65764;SDS011;52915;53.718;19.946;2022-12-07T15:03:45;92.90;;;34.20;;
65764;SDS011;52915;53.718;19.946;2022-12-07T15:08:49;43.50;;;20.80;;
65764;SDS011;52915;53.718;19.946;2022-12-07T15:13:54;111.90;;;43.50;;
65764;SDS011;52915;53.718;19.946;2022-12-07T15:19:18;97.20;;;37.10;;
65764;SDS011;52915;53.718;19.946;2022-12-07T15:24:31;66.60;;;31.00;;
65764;SDS011;52915;53.718;19.946;2022-12-07T15:29:37;98.60;;;39.30;;
65764;SDS011;52915;53.718;19.946;2022-12-07T15:34:42;68.70;;;30.90;;
65764;SDS011;52915;53.718;19.946;2022-12-07T15:39:46;53.80;;;25.50;;
65764;SDS011;52915;53.718;19.946;2022-12-07T15:44:50;43.30;;;19.50;;
65764;SDS011;52915;53.718;19.946;2022-12-07T15:50:12;80.00;;;35.50;;
65764;SDS011;52915;53.718;19.946;2022-12-07T15:55:18;44.60;;;25.80;;
65764;SDS011;52915;53.718;19.946;2022-12-07T16:00:22;77.60;;;39.00;;
65764;SDS011;52915;53.718;19.946;2022-12-07T16:05:27;148.10;;;62.60;;
65764;SDS011;52915;53.718;19.946;2022-12-07T16:10:34;79.60;;;36.80;;
65764;SDS011;52915;53.718;19.946;2022-12-07T16:15:43;55.20;;;25.80;;
65764;SDS011;52915;53.718;19.946;2022-12-07T16:20:50;31.10;;;17.30;;
65764;SDS011;52915;53.718;19.946;2022-12-07T16:25:54;58.00;;;26.40;;
65764;SDS011;52915;53.718;19.946;2022-12-07T16:31:06;61.40;;;30.30;;
65764;SDS011;52915;53.718;19.946;2022-12-07T16:36:14;48.80;;;25.00;;
65764;SDS011;52915;53.718;19.946;2022-12-07T16:41:39;53.40;;;25.00;;
65764;SDS011;52915;53.718;19.946;2022-12-07T16:46:45;66.80;;;30.50;;
65764;SDS011;52915;53.718;19.946;2022-12-07T16:51:50;93.60;;;40.90;;
65764;SDS011;52915;53.718;19.946;2022-12-07T16:57:16;91.50;;;38.60;;
65764;SDS011;52915;53.718;19.946;2022-12-07T17:02:27;176.50;;;67.40;;
65764;SDS011;52915;53.718;19.946;2022-12-07T17:07:37;175.20;;;62.60;;
65764;SDS011;52915;53.718;19.946;2022-12-07T17:12:48;189.30;;;67.30;;
65764;SDS011;52915;53.718;19.946;2022-12-07T17:18:01;122.00;;;48.00;;
65764;SDS011;52915;53.718;19.946;2022-12-07T17:23:08;115.70;;;44.30;;
65764;SDS011;52915;53.718;19.946;2022-12-07T17:28:13;108.70;;;40.90;;
65764;SDS011;52915;53.718;19.946;2022-12-07T17:33:17;195.50;;;65.40;;
65764;SDS011;52915;53.718;19.946;2022-12-07T17:38:23;122.30;;;50.90;;
65764;SDS011;52915;53.718;19.946;2022-12-07T17:43:26;184.50;;;71.30;;
65764;SDS011;52915;53.718;19.946;2022-12-07T17:48:31;86.70;;;35.50;;
65764;SDS011;52915;53.718;19.946;2022-12-07T17:53:34;112.90;;;49.70;;
65764;SDS011;52915;53.718;19.946;2022-12-07T17:58:38;455.60;;;169.60;;
65764;SDS011;52915;53.718;19.946;2022-12-07T18:03:42;181.70;;;62.50;;
65764;SDS011;52915;53.718;19.946;2022-12-07T18:08:46;148.10;;;54.40;;
65764;SDS011;52915;53.718;19.946;2022-12-07T18:13:50;82.60;;;29.90;;
65764;SDS011;52915;53.718;19.946;2022-12-07T18:18:53;169.30;;;57.40;;
65764;SDS011;52915;53.718;19.946;2022-12-07T18:24:00;302.70;;;87.20;;
65764;SDS011;52915;53.718;19.946;2022-12-07T18:29:07;83.80;;;25.80;;
65764;SDS011;52915;53.718;19.946;2022-12-07T18:34:16;101.40;;;38.80;;
65764;SDS011;52915;53.718;19.946;2022-12-07T18:39:20;122.10;;;38.40;;
65764;SDS011;52915;53.718;19.946;2022-12-07T18:44:24;120.40;;;43.10;;
65764;SDS011;52915;53.718;19.946;2022-12-07T18:49:30;143.00;;;48.30;;
65764;SDS011;52915;53.718;19.946;2022-12-07T18:54:34;92.60;;;34.70;;
65764;SDS011;52915;53.718;19.946;2022-12-07T18:59:38;133.40;;;39.90;;
65764;SDS011;52915;53.718;19.946;2022-12-07T19:04:52;27.50;;;13.40;;
65764;SDS011;52915;53.718;19.946;2022-12-07T19:09:57;51.70;;;26.30;;
65764;SDS011;52915;53.718;19.946;2022-12-07T19:15:03;43.40;;;19.50;;
65764;SDS011;52915;53.718;19.946;2022-12-07T19:20:12;45.90;;;19.30;;
65764;SDS011;52915;53.718;19.946;2022-12-07T19:25:18;38.00;;;17.90;;
65764;SDS011;52915;53.718;19.946;2022-12-07T19:30:23;49.30;;;23.50;;
65764;SDS011;52915;53.718;19.946;2022-12-07T19:35:27;69.90;;;25.50;;
65764;SDS011;52915;53.718;19.946;2022-12-07T19:40:31;64.10;;;25.60;;
65764;SDS011;52915;53.718;19.946;2022-12-07T19:45:35;46.00;;;19.50;;
65764;SDS011;52915;53.718;19.946;2022-12-07T19:50:39;50.50;;;21.30;;
65764;SDS011;52915;53.718;19.946;2022-12-07T19:55:44;48.00;;;17.00;;
65764;SDS011;52915;53.718;19.946;2022-12-07T20:00:51;99.50;;;35.10;;
65764;SDS011;52915;53.718;19.946;2022-12-07T20:05:56;39.00;;;15.30;;
65764;SDS011;52915;53.718;19.946;2022-12-07T20:11:01;37.80;;;16.90;;
65764;SDS011;52915;53.718;19.946;2022-12-07T20:16:30;43.90;;;17.70;;
65764;SDS011;52915;53.718;19.946;2022-12-07T20:21:35;34.90;;;15.00;;
65764;SDS011;52915;53.718;19.946;2022-12-07T20:26:43;42.70;;;16.30;;
65764;SDS011;52915;53.718;19.946;2022-12-07T20:31:48;29.70;;;14.40;;
65764;SDS011;52915;53.718;19.946;2022-12-07T20:36:54;43.80;;;18.20;;
65764;SDS011;52915;53.718;19.946;2022-12-07T20:41:58;45.90;;;17.70;;
65764;SDS011;52915;53.718;19.946;2022-12-07T20:47:20;42.20;;;15.40;;
65764;SDS011;52915;53.718;19.946;2022-12-07T20:52:24;30.10;;;14.60;;
65764;SDS011;52915;53.718;19.946;2022-12-07T20:57:29;48.40;;;22.30;;
65764;SDS011;52915;53.718;19.946;2022-12-07T21:02:33;37.00;;;14.50;;
65764;SDS011;52915;53.718;19.946;2022-12-07T21:07:37;39.90;;;13.80;;
65764;SDS011;52915;53.718;19.946;2022-12-07T21:12:42;50.70;;;17.30;;
65764;SDS011;52915;53.718;19.946;2022-12-07T21:17:46;55.00;;;19.90;;
65764;SDS011;52915;53.718;19.946;2022-12-07T21:22:50;48.30;;;15.80;;
65764;SDS011;52915;53.718;19.946;2022-12-07T21:27:53;45.50;;;18.20;;
65764;SDS011;52915;53.718;19.946;2022-12-07T21:32:57;43.90;;;15.90;;
65764;SDS011;52915;53.718;19.946;2022-12-07T21:38:01;47.50;;;16.70;;
65764;SDS011;52915;53.718;19.946;2022-12-07T21:43:04;33.90;;;12.20;;
65764;SDS011;52915;53.718;19.946;2022-12-07T21:48:08;33.40;;;13.40;;
65764;SDS011;52915;53.718;19.946;2022-12-07T21:53:13;43.80;;;13.20;;
65764;SDS011;52915;53.718;19.946;2022-12-07T21:58:17;36.40;;;15.00;;
65764;SDS011;52915;53.718;19.946;2022-12-07T22:03:21;30.50;;;13.30;;
65764;SDS011;52915;53.718;19.946;2022-12-07T22:08:25;34.40;;;12.00;;
65764;SDS011;52915;53.718;19.946;2022-12-07T22:13:30;33.30;;;14.20;;
65764;SDS011;52915;53.718;19.946;2022-12-07T22:18:54;60.10;;;18.60;;
65764;SDS011;52915;53.718;19.946;2022-12-07T22:23:59;44.80;;;13.60;;
65764;SDS011;52915;53.718;19.946;2022-12-07T22:29:04;68.80;;;19.30;;
65764;SDS011;52915;53.718;19.946;2022-12-07T22:34:17;33.40;;;12.70;;
65764;SDS011;52915;53.718;19.946;2022-12-07T22:39:21;27.70;;;10.10;;
65764;SDS011;52915;53.718;19.946;2022-12-07T22:44:25;41.30;;;12.10;;
65764;SDS011;52915;53.718;19.946;2022-12-07T22:49:28;32.90;;;12.00;;
65764;SDS011;52915;53.718;19.946;2022-12-07T22:54:32;22.80;;;9.00;;
65764;SDS011;52915;53.718;19.946;2022-12-07T22:59:36;28.90;;;10.30;;
65764;SDS011;52915;53.718;19.946;2022-12-07T23:04:40;32.30;;;11.50;;
65764;SDS011;52915;53.718;19.946;2022-12-07T23:09:44;13.30;;;7.10;;
65764;SDS011;52915;53.718;19.946;2022-12-07T23:14:48;13.30;;;6.80;;
65764;SDS011;52915;53.718;19.946;2022-12-07T23:19:55;12.30;;;6.50;;
65764;SDS011;52915;53.718;19.946;2022-12-07T23:24:59;24.50;;;9.00;;
65764;SDS011;52915;53.718;19.946;2022-12-07T23:30:04;19.30;;;9.80;;
65764;SDS011;52915;53.718;19.946;2022-12-07T23:35:08;17.70;;;8.30;;
65764;SDS011;52915;53.718;19.946;2022-12-07T23:40:12;21.40;;;10.80;;
65764;SDS011;52915;53.718;19.946;2022-12-07T23:45:16;11.80;;;6.60;;
65764;SDS011;52915;53.718;19.946;2022-12-07T23:50:20;24.50;;;8.60;;
65764;SDS011;52915;53.718;19.946;2022-12-07T23:55:24;17.60;;;8.10;;
